• Join FlightAware (Why Join?)
  • Login
  • US Flag 
05:02PM EST


 

Airport Tracker/Info


-or-


 

Live Flight TrackerFlight Track Log ✈ N91107 ✈ 18-Jun-2013 ✈ KDTW - KIRS

Flight Track Log - Related Links

Times and Time Zones

All times are in EDT time to prevent confusion due to time zone crossing. See the N91107 flight status page for this flight to view local times or setup timezone preferences in your user account.

Time Position Orientation Groundspeed Altitude Reporting Facility
EDT Latitude Longitude Course Direction KTS MPH feet Rate Location/Type
05:13PM 42.2289 -83.3453 248° West 91 105 1,600  Level Cleveland Center
05:14PM 42.2175 -83.3842 248° West 118 136 2,500 420 Climbing Cleveland Center
05:15PM 42.1997 -83.4283 241° Southwest 136 157 2,500  Level Cleveland Center
05:16PM 42.1883 -83.4753 252° West 143 165 2,500  Level Cleveland Center
05:17PM 42.1806 -83.5339 260° West 141 162 2,500  Level Cleveland Center
05:18PM 42.1708 -83.5839 255° West 141 162 2,500  Level Cleveland Center
05:19PM 42.1550 -83.6336 247° West 147 169 2,500 -60 Level Cleveland Center
05:20PM 42.1492 -83.6919 262° West 133 153 2,400  Descending Cleveland Center
05:21PM 42.1417 -83.7392 258° West 133 153 2,500  Climbing Cleveland Center
05:22PM 42.1300 -83.7892 253° West 139 160 2,400 -60 Descending Cleveland Center
05:23PM 42.1222 -83.8419 259° West 141 162 2,400  Level Cleveland Center
05:25PM 42.1087 -83.8999 253° West  Level FlightAware Approximate
05:32PM 42.0239 -84.2951 256° West  Level FlightAware Approximate
05:33PM 42.0136 -84.3521 256° West  Level FlightAware Approximate
05:34PM 42.0033 -84.4091 256° West  Level FlightAware Approximate
05:35PM 41.9929 -84.4661 256° West  Level FlightAware Approximate
05:36PM 41.9825 -84.5231 256° West  Level FlightAware Approximate
05:37PM 41.9721 -84.5800 256° West  Level FlightAware Approximate
05:38PM 41.9616 -84.6370 256° West  Level FlightAware Approximate
05:39PM 41.9511 -84.6939 256° West  Level FlightAware Approximate
05:40PM 41.9405 -84.7508 256° West  Level FlightAware Approximate
05:41PM 41.9299 -84.8076 256° West  Level FlightAware Approximate
05:41PM 41.9611 -84.6953 256° West 153 176 2,500  Level Chicago Center
05:42PM 41.9192 -84.8645 256° West  Level FlightAware Approximate
05:42PM 41.9519 -84.7442 256° West 138 159 2,500  Level Chicago Center
05:43PM 41.9086 -84.9213 256° West  Level FlightAware Approximate
05:43PM 41.9431 -84.7925 256° West 136 157 2,500  Level Chicago Center
05:44PM 41.8979 -84.9781 256° West  Level FlightAware Approximate
05:44PM 41.9297 -84.8539 254° West 139 160 2,500  Level Chicago Center
05:45PM 41.8871 -85.0349 256° West  Level FlightAware Approximate
05:45PM 41.9200 -84.9031 255° West 138 159 2,400  Level Chicago Center
05:46PM 41.8763 -85.0916 256° West  Level FlightAware Approximate
05:46PM 41.9108 -84.9531 256° West 138 159 2,500  Level Chicago Center
05:47PM 41.9003 -85.0017 254° West 138 159 2,500  Level Chicago Center
05:48PM 41.8914 -85.0511 256° West 137 158 2,500  Level Chicago Center
05:49PM 41.8797 -85.1103 255° West 137 158 2,500  Level Chicago Center
05:50PM 41.8708 -85.1506 254° West 138 159 2,500  Level Chicago Center